createdAt,value
2022-09-16T00:01:14.008Z,12.80
2022-09-16T00:03:42.381Z,10.70
2022-09-16T00:06:19.383Z,11.65
2022-09-16T00:08:47.922Z,11.73
2022-09-16T00:11:16.636Z,10.60
2022-09-16T00:13:44.654Z,11.82
2022-09-16T00:16:20.281Z,9.30
2022-09-16T00:18:48.706Z,13.05
2022-09-16T00:21:19.344Z,9.07
2022-09-16T00:23:47.423Z,7.75
2022-09-16T00:26:15.757Z,12.35
2022-09-16T00:28:45.807Z,10.95
2022-09-16T00:31:14.007Z,10.40
2022-09-16T00:33:42.029Z,14.10
2022-09-16T00:36:12.035Z,10.57
2022-09-16T00:38:41.986Z,10.65
2022-09-16T00:41:16.575Z,10.00
2022-09-16T00:43:53.819Z,8.18
2022-09-16T00:46:27.883Z,11.73
2022-09-16T00:48:56.383Z,8.15
2022-09-16T00:51:25.373Z,10.75
2022-09-16T00:53:58.008Z,8.13
2022-09-16T00:56:29.005Z,9.85
2022-09-16T00:59:04.120Z,11.75
2022-09-16T01:01:32.957Z,10.02
2022-09-16T01:04:05.474Z,12.18
2022-09-16T01:06:39.872Z,12.55
2022-09-16T01:09:09.476Z,9.15
2022-09-16T01:11:37.533Z,10.35
2022-09-16T01:14:23.894Z,8.95
2022-09-16T01:16:59.255Z,12.90
2022-09-16T01:19:46.033Z,12.55
2022-09-16T01:22:32.277Z,12.32
2022-09-16T01:25:13.199Z,12.80
2022-09-16T01:28:02.207Z,9.10
2022-09-16T01:30:50.000Z,9.02
2022-09-16T01:33:31.788Z,10.85
2022-09-16T01:36:16.353Z,12.70
2022-09-16T01:39:08.148Z,9.82
2022-09-16T01:41:44.772Z,10.13
2022-09-16T01:44:24.197Z,9.38
2022-09-16T01:47:01.299Z,12.40
2022-09-16T01:49:39.675Z,10.38
2022-09-16T01:52:17.996Z,12.27
2022-09-16T01:54:50.579Z,9.77
2022-09-16T01:57:21.589Z,10.70
2022-09-16T01:59:55.780Z,11.68
2022-09-16T02:02:29.543Z,12.90
2022-09-16T02:05:01.082Z,14.25
2022-09-16T02:07:33.706Z,12.10
2022-09-16T02:10:11.353Z,11.43
2022-09-16T02:12:44.937Z,19.00
2022-09-16T02:15:18.773Z,9.52
2022-09-16T02:17:51.707Z,11.85
2022-09-16T02:20:25.506Z,10.60
2022-09-16T02:22:58.399Z,12.23
2022-09-16T02:25:29.703Z,16.35
2022-09-16T02:28:02.263Z,10.55
2022-09-16T02:30:30.310Z,14.85
2022-09-16T02:33:04.643Z,12.68
2022-09-16T02:35:38.050Z,14.05
2022-09-16T02:38:10.785Z,10.30
2022-09-16T02:40:44.075Z,10.30
2022-09-16T02:43:12.201Z,9.63
2022-09-16T02:45:47.802Z,11.30
2022-09-16T02:48:27.169Z,10.98
2022-09-16T02:51:02.901Z,11.82
2022-09-16T02:53:42.026Z,14.32
2022-09-16T02:56:16.711Z,10.88
2022-09-16T02:58:44.951Z,10.38
2022-09-16T03:01:15.279Z,9.60
2022-09-16T03:03:44.807Z,11.75
2022-09-16T03:06:18.703Z,13.77
2022-09-16T03:08:47.998Z,13.32
2022-09-16T03:11:38.646Z,11.35
2022-09-16T03:14:36.405Z,14.45
2022-09-16T03:17:11.184Z,17.38
2022-09-16T03:19:57.355Z,15.20
2022-09-16T03:22:38.399Z,13.32
2022-09-16T03:25:13.103Z,12.75
2022-09-16T03:27:45.699Z,14.15
2022-09-16T03:30:13.809Z,13.45
2022-09-16T03:32:49.602Z,17.77
2022-09-16T03:35:24.108Z,14.27
2022-09-16T03:37:54.859Z,11.30
2022-09-16T03:40:24.377Z,16.30
2022-09-16T03:42:52.695Z,14.90
2022-09-16T03:45:22.405Z,14.48
2022-09-16T03:47:52.392Z,18.48
2022-09-16T03:50:22.666Z,13.30
2022-09-16T03:52:50.632Z,14.73
2022-09-16T03:55:19.132Z,13.32
2022-09-16T03:57:47.122Z,12.90
2022-09-16T04:00:16.720Z,14.70
2022-09-16T04:02:47.484Z,14.73
2022-09-16T04:05:15.688Z,14.27
2022-09-16T04:07:45.006Z,18.20
2022-09-16T04:10:13.319Z,12.23
2022-09-16T04:12:41.259Z,14.07
2022-09-16T04:15:09.975Z,10.07
2022-09-16T04:17:37.963Z,12.00
2022-09-16T04:20:07.814Z,11.65
2022-09-16T04:22:36.122Z,10.57
2022-09-16T04:25:06.109Z,12.60
2022-09-16T04:27:34.216Z,10.25
2022-09-16T04:30:02.381Z,16.13
2022-09-16T04:32:30.454Z,11.50
2022-09-16T04:34:58.491Z,11.80
2022-09-16T04:37:28.816Z,9.45
2022-09-16T04:39:59.849Z,9.48
2022-09-16T04:42:31.707Z,10.30
2022-09-16T04:45:00.514Z,9.45
2022-09-16T04:47:30.623Z,12.13
2022-09-16T04:49:58.688Z,10.52
2022-09-16T04:52:26.659Z,10.15
2022-09-16T04:54:57.422Z,16.13
2022-09-16T04:57:26.365Z,10.85
2022-09-16T04:59:58.481Z,12.70
2022-09-16T05:02:32.569Z,11.48
2022-09-16T05:05:00.608Z,7.85
2022-09-16T05:07:29.367Z,8.35
2022-09-16T05:09:57.932Z,12.63
2022-09-16T05:12:27.135Z,9.75
2022-09-16T05:14:55.072Z,7.60
2022-09-16T05:17:49.322Z,7.32
2022-09-16T05:20:17.692Z,8.75
2022-09-16T05:22:45.958Z,7.88
2022-09-16T05:25:14.425Z,5.70
2022-09-16T05:28:01.816Z,7.30
2022-09-16T05:30:29.853Z,6.15
2022-09-16T05:32:59.240Z,7.50
2022-09-16T05:35:27.195Z,8.90
2022-09-16T05:38:27.663Z,9.65
2022-09-16T05:40:59.788Z,9.38
2022-09-16T05:43:27.833Z,7.13
2022-09-16T05:45:56.666Z,10.00
2022-09-16T05:48:27.287Z,10.45
2022-09-16T05:50:56.634Z,10.45
2022-09-16T05:53:25.487Z,16.30
2022-09-16T05:55:57.831Z,8.40
2022-09-16T05:58:27.022Z,9.60
2022-09-16T06:01:00.126Z,11.90
2022-09-16T06:03:30.565Z,8.82
2022-09-16T06:06:02.051Z,9.40
2022-09-16T06:08:31.412Z,11.15
2022-09-16T06:11:01.767Z,9.82
2022-09-16T06:13:29.789Z,10.82
2022-09-16T06:15:58.027Z,14.77
2022-09-16T06:18:28.753Z,12.52
2022-09-16T06:20:58.646Z,14.35
2022-09-16T06:23:26.823Z,12.55
2022-09-16T06:26:01.389Z,12.98
2022-09-16T06:28:29.534Z,13.88
2022-09-16T06:31:06.300Z,13.32
2022-09-16T06:33:34.954Z,11.80
2022-09-16T06:36:09.743Z,9.68
2022-09-16T06:38:38.131Z,11.60
2022-09-16T06:41:08.819Z,14.00
2022-09-16T06:43:37.620Z,12.68
2022-09-16T06:46:10.297Z,9.40
2022-09-16T06:48:38.309Z,13.60
2022-09-16T06:54:01.805Z,10.18
2022-09-16T06:56:31.410Z,13.45
2022-09-16T06:58:59.636Z,11.80
2022-09-16T07:01:29.792Z,11.50
2022-09-16T07:04:00.310Z,18.83
2022-09-16T07:07:07.604Z,9.43
2022-09-16T07:09:19.751Z,12.35
2022-09-16T07:11:50.495Z,10.52
2022-09-16T07:14:18.946Z,8.68
2022-09-16T07:16:47.271Z,9.50
2022-09-16T07:19:15.457Z,11.35
2022-09-16T07:25:44.498Z,13.25
2022-09-16T07:28:14.266Z,11.98
2022-09-16T07:30:44.134Z,13.40
2022-09-16T07:33:12.182Z,12.27
2022-09-16T07:35:40.299Z,16.38
2022-09-16T07:38:09.948Z,9.07
2022-09-16T07:40:40.852Z,10.82
2022-09-16T07:43:09.019Z,11.43
2022-09-16T07:45:39.199Z,12.55
2022-09-16T07:48:07.357Z,13.52
2022-09-16T07:50:35.456Z,14.93
2022-09-16T07:53:04.360Z,13.70
2022-09-16T07:55:36.640Z,14.98
2022-09-16T07:58:05.253Z,14.25
2022-09-16T08:00:33.338Z,10.07
2022-09-16T08:03:01.494Z,14.77
2022-09-16T08:05:29.879Z,11.93
2022-09-16T08:07:57.972Z,10.48
2022-09-16T08:10:32.334Z,14.45
2022-09-16T08:13:02.278Z,9.20
2022-09-16T08:15:30.624Z,9.63
2022-09-16T08:17:58.773Z,9.48
2022-09-16T08:20:27.122Z,9.18
2022-09-16T08:22:57.952Z,11.27
2022-09-16T08:25:26.498Z,10.40
2022-09-16T08:27:56.375Z,10.77
2022-09-16T08:30:29.135Z,7.90
2022-09-16T08:32:58.103Z,7.30
2022-09-16T08:35:26.775Z,9.73
2022-09-16T08:37:54.882Z,6.55
2022-09-16T08:40:25.721Z,9.57
2022-09-16T08:43:05.459Z,9.27
2022-09-16T08:45:46.818Z,9.00
2022-09-16T08:48:30.697Z,9.75
2022-09-16T08:51:01.614Z,10.50
2022-09-16T08:53:43.506Z,6.75
2022-09-16T08:56:15.440Z,8.30
2022-09-16T08:59:05.184Z,9.18
2022-09-16T09:01:53.551Z,7.47
2022-09-16T09:04:57.050Z,7.50
2022-09-16T09:07:35.558Z,6.45
2022-09-16T09:10:22.932Z,5.88
2022-09-16T09:13:15.543Z,5.38
2022-09-16T09:16:45.512Z,5.72
2022-09-16T09:19:33.389Z,6.45
2022-09-16T09:22:18.724Z,6.35
2022-09-16T09:24:57.377Z,5.60
2022-09-16T09:27:29.459Z,5.45
2022-09-16T09:30:06.681Z,6.57
2022-09-16T09:32:49.845Z,8.27
2022-09-16T09:35:38.608Z,4.93
2022-09-16T09:38:39.745Z,4.35
2022-09-16T09:41:12.981Z,6.97
2022-09-16T09:43:48.365Z,7.70
2022-09-16T09:46:23.513Z,5.93
2022-09-16T09:48:56.816Z,5.40
2022-09-16T09:51:37.221Z,6.10
2022-09-16T09:54:23.212Z,6.60
2022-09-16T09:56:56.398Z,6.60
2022-09-16T09:59:31.758Z,4.78
2022-09-16T10:02:03.510Z,6.60
2022-09-16T10:04:37.959Z,5.65
2022-09-16T10:07:09.264Z,5.47
2022-09-16T10:09:46.421Z,5.05
2022-09-16T10:12:14.488Z,6.95
2022-09-16T10:14:42.572Z,6.35
2022-09-16T10:17:18.039Z,9.68
2022-09-16T10:19:53.540Z,8.43
2022-09-16T10:22:26.766Z,8.80
2022-09-16T10:24:57.262Z,7.45
2022-09-16T10:27:28.465Z,6.63
2022-09-16T10:30:08.906Z,7.68
2022-09-16T10:32:48.323Z,6.38
2022-09-16T10:35:23.808Z,6.88
2022-09-16T10:37:58.072Z,5.30
2022-09-16T10:40:27.296Z,7.50
2022-09-16T10:42:58.588Z,5.78
2022-09-16T10:45:29.069Z,8.57
2022-09-16T10:48:03.446Z,7.22
2022-09-16T10:50:35.056Z,4.97
2022-09-16T10:53:04.543Z,4.95
2022-09-16T10:55:38.013Z,6.93
2022-09-16T10:58:10.179Z,5.03
2022-09-16T11:00:47.567Z,7.32
2022-09-16T11:03:42.613Z,4.25
2022-09-16T11:06:25.911Z,6.45
2022-09-16T11:09:05.902Z,5.68
2022-09-16T11:12:10.386Z,8.07
2022-09-16T11:14:49.525Z,6.40
2022-09-16T11:17:49.166Z,8.00
2022-09-16T11:20:47.523Z,5.85
2022-09-16T11:23:28.335Z,6.10
2022-09-16T11:26:05.514Z,5.20
2022-09-16T11:28:54.870Z,6.72
2022-09-16T11:31:35.484Z,5.55
2022-09-16T11:34:10.591Z,4.72
2022-09-16T11:36:54.896Z,4.70
2022-09-16T11:39:42.237Z,7.07
2022-09-16T11:42:21.215Z,4.45
2022-09-16T11:44:55.751Z,5.28
2022-09-16T11:47:40.856Z,5.45
2022-09-16T11:50:29.798Z,4.30
2022-09-16T11:53:22.329Z,4.82
2022-09-16T11:55:56.731Z,4.63
2022-09-16T11:58:35.395Z,5.07
2022-09-16T12:01:13.208Z,5.20
2022-09-16T12:03:49.022Z,4.93
2022-09-16T12:06:20.790Z,5.47
2022-09-16T12:08:57.331Z,6.32
2022-09-16T12:11:37.399Z,4.78
2022-09-16T12:14:11.619Z,6.00
2022-09-16T12:16:46.289Z,6.78
2022-09-16T12:19:26.585Z,3.90
2022-09-16T12:22:02.170Z,7.13
2022-09-16T12:24:42.316Z,8.30
2022-09-16T12:27:19.839Z,5.10
2022-09-16T12:30:03.577Z,4.50
2022-09-16T12:33:00.546Z,4.43
2022-09-16T12:35:55.400Z,6.85
2022-09-16T12:38:28.856Z,5.68
2022-09-16T12:41:28.085Z,6.18
2022-09-16T12:44:33.544Z,4.28
2022-09-16T12:47:51.715Z,3.83
2022-09-16T12:51:50.205Z,6.70
2022-09-16T12:55:07.807Z,4.72
2022-09-16T12:58:24.370Z,4.10
2022-09-16T13:01:05.746Z,4.68
2022-09-16T13:03:40.457Z,5.57
2022-09-16T13:06:23.312Z,3.03
2022-09-16T13:08:53.096Z,6.53
2022-09-16T13:14:26.649Z,3.97
2022-09-16T13:16:59.545Z,4.43
2022-09-16T13:19:39.327Z,5.45
2022-09-16T13:22:19.120Z,4.80
2022-09-16T13:24:55.087Z,5.57
2022-09-16T13:27:32.726Z,4.15
2022-09-16T13:30:29.695Z,3.50
2022-09-16T13:33:32.454Z,7.88
2022-09-16T13:36:17.972Z,3.45
2022-09-16T13:38:49.638Z,2.63
2022-09-16T13:41:35.292Z,5.30
2022-09-16T13:44:05.303Z,6.50
2022-09-16T13:46:40.632Z,4.18
2022-09-16T13:49:27.767Z,4.50
2022-09-16T13:51:59.069Z,4.30
2022-09-16T13:54:43.226Z,4.80
2022-09-16T13:57:34.151Z,3.80
2022-09-16T14:00:22.960Z,3.78
2022-09-16T14:03:26.507Z,4.18
2022-09-16T14:06:15.787Z,4.32
2022-09-16T14:09:01.716Z,2.72
2022-09-16T14:11:46.957Z,4.90
2022-09-16T14:14:46.245Z,7.65
2022-09-16T14:17:24.777Z,4.82
2022-09-16T14:20:03.138Z,5.78
2022-09-16T14:22:31.799Z,5.13
2022-09-16T14:25:19.298Z,5.10
2022-09-16T14:27:54.677Z,3.95
2022-09-16T14:30:24.462Z,5.05
2022-09-16T14:32:52.526Z,3.85
2022-09-16T14:35:24.056Z,4.53
2022-09-16T14:37:58.738Z,3.97
2022-09-16T14:40:29.493Z,3.53
2022-09-16T14:43:01.477Z,4.07
2022-09-16T14:45:31.686Z,3.10
2022-09-16T14:48:02.831Z,6.68
2022-09-16T14:50:38.296Z,4.80
2022-09-16T14:53:24.262Z,4.20
2022-09-16T14:55:56.976Z,2.05
2022-09-16T14:58:28.483Z,3.55
2022-09-16T15:01:00.845Z,3.80
2022-09-16T15:03:35.812Z,8.73
2022-09-16T15:06:08.518Z,4.72
2022-09-16T15:08:46.990Z,2.63
2022-09-16T15:11:43.618Z,3.15
2022-09-16T15:14:09.221Z,4.50
2022-09-16T15:16:46.006Z,5.10
2022-09-16T15:19:23.077Z,3.67
2022-09-16T15:21:51.817Z,4.35
2022-09-16T15:24:24.905Z,3.75
2022-09-16T15:26:55.144Z,4.45
2022-09-16T15:29:32.839Z,4.03
2022-09-16T15:32:19.531Z,4.47
2022-09-16T15:34:48.124Z,5.28
2022-09-16T15:37:34.440Z,6.35
2022-09-16T15:40:20.769Z,6.13
2022-09-16T15:43:02.306Z,4.65
2022-09-16T15:45:32.490Z,5.47
2022-09-16T15:48:06.268Z,7.60
2022-09-16T15:50:42.288Z,3.83
2022-09-16T15:53:14.015Z,6.75
2022-09-16T15:55:53.108Z,7.43
2022-09-16T15:58:39.601Z,9.85
2022-09-16T16:01:13.367Z,8.07
2022-09-16T16:03:52.945Z,6.55
2022-09-16T16:06:22.161Z,9.05
2022-09-16T16:08:52.038Z,6.68
2022-09-16T16:11:23.558Z,5.10
2022-09-16T16:13:53.220Z,4.13
2022-09-16T16:16:22.498Z,4.35
2022-09-16T16:18:50.625Z,6.75
2022-09-16T16:21:20.891Z,5.90
2022-09-16T16:23:48.945Z,5.35
2022-09-16T16:26:17.064Z,5.05
2022-09-16T16:28:45.117Z,4.63
2022-09-16T16:31:16.952Z,3.70
2022-09-16T16:33:46.490Z,4.85
2022-09-16T16:36:16.013Z,4.22
2022-09-16T16:38:45.532Z,5.05
2022-09-16T16:41:14.175Z,3.70
2022-09-16T16:43:42.415Z,8.05
2022-09-16T16:46:10.459Z,5.05
2022-09-16T16:48:40.202Z,2.55
2022-09-16T16:51:17.012Z,6.85
2022-09-16T16:53:49.296Z,4.07
2022-09-16T16:56:20.124Z,7.63
2022-09-16T16:58:51.029Z,4.53
2022-09-16T17:01:20.763Z,3.83
2022-09-16T17:03:51.446Z,7.45
2022-09-16T17:06:22.590Z,3.95
2022-09-16T17:08:54.330Z,5.18
2022-09-16T17:11:23.169Z,6.22
2022-09-16T17:13:52.845Z,6.28
2022-09-16T17:16:24.581Z,5.68
2022-09-16T17:18:55.452Z,4.38
2022-09-16T17:21:25.160Z,5.13
2022-09-16T17:23:53.652Z,4.95
2022-09-16T17:26:21.954Z,5.35
2022-09-16T17:28:57.976Z,6.47
2022-09-16T17:31:31.270Z,4.55
2022-09-16T17:34:05.560Z,5.00
2022-09-16T17:36:37.965Z,5.30
2022-09-16T17:39:07.792Z,5.28
2022-09-16T17:41:36.134Z,4.38
2022-09-16T17:44:11.285Z,7.68
2022-09-16T17:46:40.183Z,6.50
2022-09-16T17:49:15.326Z,8.10
2022-09-16T17:51:43.430Z,6.45
2022-09-16T17:54:12.102Z,4.28
2022-09-16T17:56:41.033Z,5.38
2022-09-16T17:59:09.365Z,3.55
2022-09-16T18:01:39.813Z,4.55
2022-09-16T18:04:09.417Z,3.85
2022-09-16T18:06:42.215Z,4.07
2022-09-16T18:09:10.764Z,6.68
2022-09-16T18:11:39.908Z,3.00
2022-09-16T18:14:13.206Z,6.22
2022-09-16T18:16:44.003Z,9.38
2022-09-16T18:19:13.355Z,5.78
2022-09-16T18:21:41.662Z,4.03
2022-09-16T18:24:13.182Z,5.53
2022-09-16T18:26:47.758Z,5.75
2022-09-16T18:29:17.839Z,7.97
2022-09-16T18:31:48.591Z,4.40
2022-09-16T18:34:18.589Z,4.38
2022-09-16T18:36:55.965Z,4.05
2022-09-16T18:39:23.982Z,3.60
2022-09-16T18:41:56.557Z,4.18
2022-09-16T18:44:24.764Z,2.92
2022-09-16T18:46:54.544Z,2.17
2022-09-16T18:49:25.341Z,2.53
2022-09-16T18:51:54.245Z,2.88
2022-09-16T18:54:43.992Z,1.58
2022-09-16T18:57:13.138Z,3.25
2022-09-16T18:59:41.464Z,2.65
2022-09-16T19:02:13.475Z,4.07
2022-09-16T19:04:44.079Z,1.45
2022-09-16T19:07:16.347Z,2.53
2022-09-16T19:09:45.987Z,3.38
2022-09-16T19:12:14.809Z,1.95
2022-09-16T19:14:42.868Z,1.30
2022-09-16T19:17:11.120Z,2.63
2022-09-16T19:19:39.085Z,3.65
2022-09-16T19:22:08.561Z,2.17
2022-09-16T19:24:38.630Z,3.15
2022-09-16T19:27:09.625Z,1.52
2022-09-16T19:29:37.686Z,1.65
2022-09-16T19:32:08.988Z,3.35
2022-09-16T19:34:37.124Z,2.83
2022-09-16T19:37:05.332Z,3.78
2022-09-16T19:39:36.727Z,3.05
2022-09-16T19:42:11.163Z,2.65
2022-09-16T19:44:39.191Z,2.97
2022-09-16T19:47:09.931Z,2.72
2022-09-16T19:49:37.921Z,3.47
2022-09-16T19:52:06.196Z,1.95
2022-09-16T19:54:35.625Z,3.45
2022-09-16T19:57:03.710Z,2.70
2022-09-16T19:59:34.340Z,1.92
2022-09-16T20:02:02.245Z,2.15
2022-09-16T20:04:30.681Z,2.22
2022-09-16T20:06:58.762Z,3.10
2022-09-16T20:09:28.186Z,5.20
2022-09-16T20:11:58.603Z,2.35
2022-09-16T20:14:33.879Z,3.53
2022-09-16T20:17:02.408Z,2.08
2022-09-16T20:19:31.166Z,3.95
2022-09-16T20:21:59.465Z,1.38
2022-09-16T20:24:27.538Z,3.38
2022-09-16T20:27:01.917Z,3.65
2022-09-16T20:29:30.811Z,1.77
2022-09-16T20:31:58.934Z,2.05
2022-09-16T20:34:27.108Z,1.75
2022-09-16T20:36:55.114Z,3.05
2022-09-16T20:39:28.058Z,3.20
2022-09-16T20:41:58.510Z,2.20
2022-09-16T20:44:26.882Z,2.33
2022-09-16T20:46:54.827Z,4.72
2022-09-16T20:49:25.311Z,3.67
2022-09-16T20:51:55.169Z,4.47
2022-09-16T20:54:23.592Z,3.60
2022-09-16T20:56:51.526Z,5.07
2022-09-16T20:59:21.539Z,2.95
2022-09-16T21:01:51.815Z,6.50
2022-09-16T21:04:21.200Z,3.05
2022-09-16T21:06:49.577Z,6.32
2022-09-16T21:09:19.075Z,4.35
2022-09-16T21:11:47.260Z,7.55
2022-09-16T21:14:17.210Z,7.72
2022-09-16T21:16:47.978Z,4.10
2022-09-16T21:19:18.168Z,3.25
2022-09-16T21:21:49.130Z,2.58
2022-09-16T21:24:17.604Z,1.73
2022-09-16T21:26:46.157Z,6.60
2022-09-16T21:29:17.896Z,2.60
2022-09-16T21:31:48.523Z,1.30
2022-09-16T21:34:18.223Z,3.65
2022-09-16T21:36:47.794Z,2.45
2022-09-16T21:39:17.138Z,2.45
2022-09-16T21:41:47.802Z,2.95
2022-09-16T21:44:16.282Z,2.25
2022-09-16T21:46:47.882Z,1.58
2022-09-16T21:49:22.426Z,1.38
2022-09-16T21:51:51.403Z,1.55
2022-09-16T21:54:20.594Z,1.85
2022-09-16T21:56:49.854Z,2.35
2022-09-16T21:59:19.865Z,4.97
2022-09-16T22:01:52.104Z,1.75
2022-09-16T22:04:21.805Z,1.00
2022-09-16T22:06:50.291Z,1.45
2022-09-16T22:09:18.700Z,3.97
2022-09-16T22:11:47.092Z,1.30
2022-09-16T22:14:25.185Z,1.48
2022-09-16T22:16:54.612Z,2.20
2022-09-16T22:19:22.511Z,2.15
2022-09-16T22:21:53.171Z,4.72
2022-09-16T22:24:21.450Z,1.20
2022-09-16T22:26:56.430Z,1.95
2022-09-16T22:29:24.451Z,2.08
2022-09-16T22:31:56.814Z,2.17
2022-09-16T22:34:24.823Z,1.83
2022-09-16T22:36:52.820Z,1.23
2022-09-16T22:39:21.111Z,1.10
2022-09-16T22:41:52.403Z,3.10
2022-09-16T22:44:20.384Z,1.92
2022-09-16T22:46:50.961Z,1.88
2022-09-16T22:49:45.989Z,1.10
2022-09-16T22:52:14.071Z,2.38
2022-09-16T22:54:43.372Z,2.47
2022-09-16T22:57:13.036Z,1.58
2022-09-16T22:59:51.283Z,3.58
2022-09-16T23:02:40.098Z,2.92
2022-09-16T23:05:20.906Z,2.83
2022-09-16T23:07:56.222Z,1.38
2022-09-16T23:10:26.851Z,1.23
2022-09-16T23:12:55.327Z,1.73
2022-09-16T23:15:23.347Z,2.30
2022-09-16T23:17:51.463Z,1.63
2022-09-16T23:20:20.804Z,1.33
2022-09-16T23:22:50.730Z,2.95
2022-09-16T23:25:18.718Z,3.35
2022-09-16T23:27:46.662Z,3.28
2022-09-16T23:30:14.850Z,3.10
2022-09-16T23:32:42.918Z,2.00
2022-09-16T23:35:14.171Z,2.15
2022-09-16T23:37:50.156Z,3.33
2022-09-16T23:40:21.259Z,1.95
2022-09-16T23:42:54.316Z,3.97
2022-09-16T23:45:28.869Z,2.63
2022-09-16T23:47:56.929Z,2.15
2022-09-16T23:50:24.988Z,3.08
2022-09-16T23:52:57.129Z,1.63
2022-09-16T23:55:25.178Z,3.10
2022-09-16T23:57:54.182Z,4.28
